createdAt,value
2019-04-14T00:00:51.906Z,1017.34
2019-04-14T00:01:52.299Z,1017.36
2019-04-14T00:02:51.858Z,1017.34
2019-04-14T00:03:52.238Z,1017.34
2019-04-14T00:04:52.744Z,1017.33
2019-04-14T00:05:52.121Z,1017.30
2019-04-14T00:06:52.588Z,1017.26
2019-04-14T00:07:51.817Z,1017.32
2019-04-14T00:08:52.240Z,1017.30
2019-04-14T00:09:52.059Z,1017.34
2019-04-14T00:10:52.858Z,1017.35
2019-04-14T00:11:52.701Z,1017.34
2019-04-14T00:12:51.639Z,1017.34
2019-04-14T00:13:52.425Z,1017.28
2019-04-14T00:14:51.594Z,1017.30
2019-04-14T00:15:53.168Z,1017.28
2019-04-14T00:16:51.551Z,1017.23
2019-04-14T00:17:52.542Z,1017.27
2019-04-14T00:18:51.507Z,1017.25
2019-04-14T00:19:52.416Z,1017.25
2019-04-14T00:20:51.463Z,1017.26
2019-04-14T00:21:52.239Z,1017.25
2019-04-14T00:22:51.421Z,1017.27
2019-04-14T00:23:52.236Z,1017.17
2019-04-14T00:24:51.373Z,1017.20
2019-04-14T00:25:52.228Z,1017.15
2019-04-14T00:26:51.345Z,1017.13
2019-04-14T00:27:52.191Z,1017.12
2019-04-14T00:28:51.307Z,1017.17
2019-04-14T00:29:52.399Z,1017.10
2019-04-14T00:30:51.305Z,1017.15
2019-04-14T00:31:53.721Z,1017.12
2019-04-14T00:32:51.200Z,1017.10
2019-04-14T00:33:52.099Z,1017.14
2019-04-14T00:34:51.157Z,1017.15
2019-04-14T00:35:51.601Z,1017.13
2019-04-14T00:36:52.265Z,1017.14
2019-04-14T00:37:51.163Z,1017.15
2019-04-14T00:38:52.003Z,1017.15
2019-04-14T00:39:51.205Z,1017.09
2019-04-14T00:40:51.826Z,1017.14
2019-04-14T00:41:55.532Z,1017.09
2019-04-14T00:42:51.586Z,1017.11
2019-04-14T00:43:50.972Z,1017.09
2019-04-14T00:44:51.833Z,1017.10
2019-04-14T00:45:53.585Z,1017.11
2019-04-14T00:46:51.702Z,1017.07
2019-04-14T00:47:59.550Z,1017.08
2019-04-14T00:48:51.800Z,1017.09
2019-04-14T00:49:50.978Z,1017.07
2019-04-14T00:50:51.752Z,1017.04
2019-04-14T00:51:50.883Z,1017.05
2019-04-14T00:52:50.757Z,1017.04
2019-04-14T00:53:51.299Z,1017.05
2019-04-14T00:54:50.717Z,1017.06
2019-04-14T00:55:51.127Z,1017.08
2019-04-14T00:56:51.755Z,1017.07
2019-04-14T00:57:50.917Z,1017.06
2019-04-14T00:58:51.752Z,1017.06
2019-04-14T00:59:50.899Z,1017.03
2019-04-14T01:00:51.769Z,1017.03
2019-04-14T01:01:50.557Z,1017.07
2019-04-14T01:02:51.593Z,1017.03
2019-04-14T01:03:50.574Z,1017.04
2019-04-14T01:04:51.320Z,1017.04
2019-04-14T01:05:50.465Z,1017.03
2019-04-14T01:06:51.147Z,1017.03
2019-04-14T01:07:50.429Z,1017.01
2019-04-14T01:08:51.170Z,1017.01
2019-04-14T01:09:51.047Z,1017.02
2019-04-14T01:10:51.869Z,1017.04
2019-04-14T01:11:51.009Z,1017.03
2019-04-14T01:12:50.310Z,1017.03
2019-04-14T01:13:50.807Z,1017.04
2019-04-14T01:14:50.264Z,1017.05
2019-04-14T01:15:58.679Z,1017.04
2019-04-14T01:16:50.220Z,1017.02
2019-04-14T01:17:50.679Z,1017.01
2019-04-14T01:18:51.474Z,1016.98
2019-04-14T01:19:50.621Z,1016.97
2019-04-14T01:20:51.325Z,1016.97
2019-04-14T01:21:50.342Z,1016.97
2019-04-14T01:22:51.009Z,1016.98
2019-04-14T01:23:50.218Z,1016.92
2019-04-14T01:24:51.053Z,1016.96
2019-04-14T01:25:50.025Z,1017.01
2019-04-14T01:26:50.673Z,1017.02
2019-04-14T01:27:49.975Z,1017.02
2019-04-14T01:28:50.451Z,1017.01
2019-04-14T01:29:49.929Z,1017.03
2019-04-14T01:30:50.160Z,1017.01
2019-04-14T01:31:49.889Z,1016.99
2019-04-14T01:32:50.129Z,1017.02
2019-04-14T01:33:51.117Z,1017.01
2019-04-14T01:34:52.042Z,1017.02
2019-04-14T01:35:50.912Z,1017.03
2019-04-14T01:36:49.779Z,1017.02
2019-04-14T01:37:50.731Z,1017.03
2019-04-14T01:38:49.732Z,1017.03
2019-04-14T01:39:50.225Z,1017.06
2019-04-14T01:40:50.919Z,1017.08
2019-04-14T01:41:49.961Z,1017.05
2019-04-14T01:42:50.629Z,1017.10
2019-04-14T01:43:49.691Z,1017.05
2019-04-14T01:44:50.335Z,1017.07
2019-04-14T01:46:04.319Z,1017.07
2019-04-14T01:46:49.870Z,1017.08
2019-04-14T01:47:49.537Z,1017.06
2019-04-14T01:48:49.632Z,1017.13
2019-04-14T01:49:49.486Z,1017.10
2019-04-14T01:50:49.620Z,1017.10
2019-04-14T01:51:50.633Z,1017.09
2019-04-14T01:52:50.169Z,1017.10
2019-04-14T01:53:49.398Z,1017.11
2019-04-14T01:54:49.502Z,1017.16
2019-04-14T01:55:50.447Z,1017.16
2019-04-14T01:56:49.330Z,1017.16
2019-04-14T01:57:50.296Z,1017.16
2019-04-14T01:58:49.290Z,1017.13
2019-04-14T01:59:50.339Z,1017.16
2019-04-14T02:00:49.479Z,1017.14
2019-04-14T02:01:49.937Z,1017.15
2019-04-14T02:02:49.200Z,1017.17
2019-04-14T02:03:49.873Z,1017.21
2019-04-14T02:04:49.152Z,1017.19
2019-04-14T02:05:49.600Z,1017.16
2019-04-14T02:06:49.105Z,1017.17
2019-04-14T02:07:49.432Z,1017.16
2019-04-14T02:08:50.138Z,1017.17
2019-04-14T02:09:49.052Z,1017.17
2019-04-14T02:10:49.927Z,1017.17
2019-04-14T02:11:48.999Z,1017.18
2019-04-14T02:12:49.598Z,1017.17
2019-04-14T02:13:48.951Z,1017.20
2019-04-14T02:14:49.499Z,1017.17
2019-04-14T02:15:48.910Z,1017.20
2019-04-14T02:16:54.092Z,1017.18
2019-04-14T02:17:50.173Z,1017.18
2019-04-14T02:18:51.712Z,1017.17
2019-04-14T02:19:48.860Z,1017.20
2019-04-14T02:20:49.129Z,1017.18
2019-04-14T02:21:49.918Z,1017.18
2019-04-14T02:22:48.750Z,1017.13
2019-04-14T02:23:49.815Z,1017.13
2019-04-14T02:24:48.706Z,1017.15
2019-04-14T02:25:49.401Z,1017.19
2019-04-14T02:26:48.661Z,1017.13
2019-04-14T02:27:49.352Z,1017.14
2019-04-14T02:28:48.615Z,1017.18
2019-04-14T02:29:49.512Z,1017.17
2019-04-14T02:31:00.247Z,1017.13
2019-04-14T02:32:18.560Z,1017.16
2019-04-14T02:33:17.286Z,1017.18
2019-04-14T02:34:21.995Z,1017.16
2019-04-14T02:36:21.639Z,1017.18
2019-04-14T02:37:28.309Z,1017.22
2019-04-14T02:38:23.385Z,1017.17
2019-04-14T02:39:35.903Z,1017.20
2019-04-14T02:40:18.480Z,1017.21
2019-04-14T02:41:43.791Z,1017.22
2019-04-14T02:43:23.862Z,1017.22
2019-04-14T02:44:24.134Z,1017.25
2019-04-14T02:45:19.296Z,1017.22
2019-04-14T02:46:10.757Z,1017.25
2019-04-14T02:47:37.951Z,1017.25
2019-04-14T02:48:25.833Z,1017.25
2019-04-14T02:49:16.042Z,1017.25
2019-04-14T02:50:20.287Z,1017.25
2019-04-14T02:52:19.834Z,1017.27
2019-04-14T02:53:19.082Z,1017.23
2019-04-14T02:54:11.883Z,1017.19
2019-04-14T02:55:12.212Z,1017.23
2019-04-14T02:56:15.583Z,1017.25
2019-04-14T02:57:19.041Z,1017.25
2019-04-14T02:58:20.648Z,1017.22
2019-04-14T02:59:16.226Z,1017.20
2019-04-14T03:00:19.664Z,1017.23
2019-04-14T03:01:24.187Z,1017.21
2019-04-14T03:02:23.126Z,1017.24
2019-04-14T03:03:16.512Z,1017.23
2019-04-14T03:04:17.142Z,1017.23
2019-04-14T03:05:09.395Z,1017.28
2019-04-14T03:06:14.500Z,1017.24
2019-04-14T03:07:16.281Z,1017.23
2019-04-14T03:08:22.258Z,1017.25
2019-04-14T03:10:20.393Z,1017.24
2019-04-14T03:11:17.431Z,1017.26
2019-04-14T03:12:19.169Z,1017.21
2019-04-14T03:13:29.362Z,1017.29
2019-04-14T03:14:19.368Z,1017.27
2019-04-14T03:15:17.654Z,1017.30
2019-04-14T03:16:23.297Z,1017.26
2019-04-14T03:17:21.395Z,1017.31
2019-04-14T03:19:14.553Z,1017.29
2019-04-14T03:20:20.503Z,1017.29
2019-04-14T03:21:30.576Z,1017.33
2019-04-14T03:22:26.126Z,1017.27
2019-04-14T03:23:19.286Z,1017.27
2019-04-14T03:24:10.926Z,1017.31
2019-04-14T03:25:00.473Z,1017.30
2019-04-14T03:26:11.770Z,1017.33
2019-04-14T03:27:13.617Z,1017.31
2019-04-14T03:28:12.207Z,1017.33
2019-04-14T03:29:19.562Z,1017.32
2019-04-14T03:30:33.516Z,1017.33
2019-04-14T03:32:23.672Z,1017.34
2019-04-14T03:33:32.141Z,1017.33
2019-04-14T03:35:47.286Z,1017.31
2019-04-14T03:36:43.987Z,1017.28
2019-04-14T03:37:39.595Z,1017.26
2019-04-14T03:38:18.275Z,1017.31
2019-04-14T03:39:36.956Z,1017.31
2019-04-14T03:40:08.465Z,1017.29
2019-04-14T03:41:16.777Z,1017.26
2019-04-14T03:43:19.463Z,1017.30
2019-04-14T03:44:18.059Z,1017.29
2019-04-14T03:45:14.428Z,1017.30
2019-04-14T03:46:23.597Z,1017.31
2019-04-14T03:47:13.886Z,1017.31
2019-04-14T03:50:17.281Z,1017.32
2019-04-14T03:52:13.073Z,1017.28
2019-04-14T03:53:15.885Z,1017.28
2019-04-14T03:54:20.298Z,1017.25
2019-04-14T03:55:02.683Z,1017.27
2019-04-14T03:55:54.171Z,1017.27
2019-04-14T03:56:46.845Z,1017.26
2019-04-14T03:57:47.632Z,1017.30
2019-04-14T03:58:46.617Z,1017.30
2019-04-14T03:59:47.715Z,1017.27
2019-04-14T04:00:46.589Z,1017.30
2019-04-14T04:01:47.762Z,1017.29
2019-04-14T04:02:46.727Z,1017.32
2019-04-14T04:03:46.450Z,1017.31
2019-04-14T04:04:46.761Z,1017.33
2019-04-14T04:05:46.402Z,1017.31
2019-04-14T04:06:46.485Z,1017.32
2019-04-14T04:07:47.426Z,1017.34
2019-04-14T04:08:46.495Z,1017.32
2019-04-14T04:09:47.475Z,1017.34
2019-04-14T04:10:46.576Z,1017.32
2019-04-14T04:11:47.555Z,1017.32
2019-04-14T04:12:46.534Z,1017.33
2019-04-14T04:13:46.225Z,1017.33
2019-04-14T04:14:46.425Z,1017.37
2019-04-14T04:15:46.176Z,1017.34
2019-04-14T04:16:46.249Z,1017.32
2019-04-14T04:17:47.198Z,1017.36
2019-04-14T04:18:56.463Z,1017.36
2019-04-14T04:19:46.985Z,1017.37
2019-04-14T04:20:46.064Z,1017.39
2019-04-14T04:21:46.625Z,1017.41
2019-04-14T04:22:46.025Z,1017.39
2019-04-14T04:23:46.798Z,1017.44
2019-04-14T04:24:45.978Z,1017.43
2019-04-14T04:25:46.596Z,1017.45
2019-04-14T04:26:47.152Z,1017.45
2019-04-14T04:27:46.172Z,1017.53
2019-04-14T04:28:47.086Z,1017.46
2019-04-14T04:29:46.264Z,1017.47
2019-04-14T04:30:46.924Z,1017.49
2019-04-14T04:31:46.164Z,1017.51
2019-04-14T04:32:46.845Z,1017.49
2019-04-14T04:33:45.849Z,1017.50
2019-04-14T04:34:46.633Z,1017.52
2019-04-14T04:35:45.808Z,1017.54
2019-04-14T04:36:46.381Z,1017.56
2019-04-14T04:37:45.671Z,1017.53
2019-04-14T04:38:46.336Z,1017.56
2019-04-14T04:39:45.624Z,1017.56
2019-04-14T04:40:46.135Z,1017.58
2019-04-14T04:41:45.581Z,1017.60
2019-04-14T04:42:45.824Z,1017.64
2019-04-14T04:43:45.534Z,1017.63
2019-04-14T04:44:46.350Z,1017.62
2019-04-14T04:45:45.484Z,1017.65
2019-04-14T04:46:45.983Z,1017.63
2019-04-14T04:47:45.439Z,1017.65
2019-04-14T04:48:58.244Z,1017.68
2019-04-14T04:49:45.397Z,1017.66
2019-04-14T04:50:45.434Z,1017.61
2019-04-14T04:51:46.436Z,1017.70
2019-04-14T04:52:45.325Z,1017.68
2019-04-14T04:53:46.207Z,1017.71
2019-04-14T04:54:45.284Z,1017.73
2019-04-14T04:55:46.061Z,1017.77
2019-04-14T04:56:45.232Z,1017.76
2019-04-14T04:57:45.994Z,1017.77
2019-04-14T04:58:45.647Z,1017.75
2019-04-14T04:59:45.346Z,1017.76
2019-04-14T05:00:47.351Z,1017.74
2019-04-14T05:01:45.222Z,1017.74
2019-04-14T05:02:46.063Z,1017.81
2019-04-14T05:03:45.070Z,1017.76
2019-04-14T05:04:46.026Z,1017.76
2019-04-14T05:05:45.044Z,1017.77
2019-04-14T05:06:45.904Z,1017.82
2019-04-14T05:07:44.978Z,1017.85
2019-04-14T05:08:45.552Z,1017.84
2019-04-14T05:09:44.947Z,1017.83
2019-04-14T05:10:45.702Z,1017.86
2019-04-14T05:11:44.889Z,1017.84
2019-04-14T05:12:45.662Z,1017.85
2019-04-14T05:13:44.840Z,1017.81
2019-04-14T05:14:45.580Z,1017.83
2019-04-14T05:15:44.799Z,1017.79
2019-04-14T05:16:44.773Z,1017.82
2019-04-14T05:17:45.243Z,1017.80
2019-04-14T05:18:44.724Z,1017.84
2019-04-14T05:19:45.470Z,1017.81
2019-04-14T05:20:44.680Z,1017.84
2019-04-14T05:21:45.246Z,1017.89
2019-04-14T05:22:44.635Z,1017.89
2019-04-14T05:23:45.345Z,1017.91
2019-04-14T05:24:44.604Z,1017.92
2019-04-14T05:25:45.204Z,1017.90
2019-04-14T05:26:44.545Z,1017.89
2019-04-14T05:27:45.193Z,1017.88
2019-04-14T05:28:44.495Z,1017.87
2019-04-14T05:29:45.080Z,1017.87
2019-04-14T05:30:45.723Z,1017.88
2019-04-14T05:31:44.748Z,1017.89
2019-04-14T05:32:45.449Z,1017.90
2019-04-14T05:33:44.778Z,1017.92
2019-04-14T05:34:45.408Z,1017.90
2019-04-14T05:35:44.567Z,1017.92
2019-04-14T05:36:45.364Z,1017.94
2019-04-14T05:37:44.435Z,1017.96
2019-04-14T05:38:45.017Z,1017.96
2019-04-14T05:39:44.245Z,1017.98
2019-04-14T05:40:45.066Z,1018.01
2019-04-14T05:41:58.983Z,1017.98
2019-04-14T05:42:45.034Z,1017.97
2019-04-14T05:43:51.427Z,1018.01
2019-04-14T05:44:44.824Z,1018.00
2019-04-14T05:45:44.107Z,1018.02
2019-04-14T05:46:44.681Z,1018.05
2019-04-14T05:47:44.088Z,1018.03
2019-04-14T05:48:44.653Z,1018.02
2019-04-14T05:49:48.262Z,1018.02
2019-04-14T05:50:44.405Z,1018.07
2019-04-14T05:51:43.975Z,1018.06
2019-04-14T05:52:44.721Z,1018.10
2019-04-14T05:53:43.954Z,1018.12
2019-04-14T05:54:44.699Z,1018.12
2019-04-14T05:55:43.894Z,1018.14
2019-04-14T05:56:44.734Z,1018.14
2019-04-14T05:57:43.881Z,1018.10
2019-04-14T05:58:44.758Z,1018.11
2019-04-14T05:59:44.104Z,1018.09
2019-04-14T06:00:43.821Z,1018.13
2019-04-14T06:01:44.288Z,1018.09
2019-04-14T06:02:44.152Z,1018.10
2019-04-14T06:03:43.714Z,1018.12
2019-04-14T06:04:43.992Z,1018.15
2019-04-14T06:05:44.927Z,1018.14
2019-04-14T06:06:43.639Z,1018.18
2019-04-14T06:07:43.620Z,1018.20
2019-04-14T06:08:43.598Z,1018.20
2019-04-14T06:09:43.573Z,1018.22
2019-04-14T06:10:43.550Z,1018.26
2019-04-14T06:11:43.530Z,1018.24
2019-04-14T06:12:43.505Z,1018.22
2019-04-14T06:13:43.499Z,1018.18
2019-04-14T06:14:43.459Z,1018.19
2019-04-14T06:15:43.435Z,1018.18
2019-04-14T06:16:43.420Z,1018.21
2019-04-14T06:17:43.393Z,1018.22
2019-04-14T06:18:43.370Z,1018.26
2019-04-14T06:19:43.348Z,1018.22
2019-04-14T06:20:43.333Z,1018.27
2019-04-14T06:21:43.305Z,1018.30
2019-04-14T06:22:43.291Z,1018.32
2019-04-14T06:23:43.261Z,1018.35
2019-04-14T06:24:43.238Z,1018.36
2019-04-14T06:25:43.218Z,1018.35
2019-04-14T06:26:43.196Z,1018.36
2019-04-14T06:27:43.173Z,1018.35
2019-04-14T06:28:43.152Z,1018.36
2019-04-14T06:29:43.128Z,1018.37
2019-04-14T06:30:43.107Z,1018.41
2019-04-14T06:31:43.085Z,1018.38
2019-04-14T06:32:43.070Z,1018.42
2019-04-14T06:33:43.039Z,1018.42
2019-04-14T06:34:43.022Z,1018.42
2019-04-14T06:35:43.002Z,1018.41
2019-04-14T06:36:42.981Z,1018.46
2019-04-14T06:37:43.267Z,1018.44
2019-04-14T06:38:42.934Z,1018.45
2019-04-14T06:39:42.909Z,1018.44
2019-04-14T06:40:42.889Z,1018.45
2019-04-14T06:41:42.894Z,1018.51
2019-04-14T06:42:42.848Z,1018.55
2019-04-14T06:43:48.643Z,1018.64
2019-04-14T06:44:42.803Z,1018.70
2019-04-14T06:45:42.795Z,1018.71
2019-04-14T06:46:42.760Z,1018.75
2019-04-14T06:47:42.746Z,1018.80
2019-04-14T06:48:42.730Z,1018.85
2019-04-14T06:49:48.920Z,1018.84
2019-04-14T06:50:42.683Z,1018.86
2019-04-14T06:51:42.668Z,1018.90
2019-04-14T06:52:42.647Z,1018.92
2019-04-14T06:53:42.637Z,1018.96
2019-04-14T06:54:42.619Z,1019.03
2019-04-14T06:55:42.597Z,1018.93
2019-04-14T06:56:42.581Z,1019.05
2019-04-14T06:57:42.567Z,1019.06
2019-04-14T06:58:42.552Z,1019.04
2019-04-14T06:59:42.540Z,1019.12
2019-04-14T07:00:42.517Z,1019.11
2019-04-14T07:01:42.501Z,1019.07
2019-04-14T07:02:42.697Z,1019.19
2019-04-14T07:03:42.469Z,1019.20
2019-04-14T07:04:42.453Z,1019.25
2019-04-14T07:05:42.451Z,1019.24
2019-04-14T07:06:42.435Z,1019.20
2019-04-14T07:07:42.411Z,1019.19
2019-04-14T07:08:42.410Z,1019.21
2019-04-14T07:09:42.385Z,1019.18
2019-04-14T07:10:42.375Z,1019.22
2019-04-14T07:11:42.365Z,1019.27
2019-04-14T07:12:43.185Z,1019.23
2019-04-14T07:13:42.331Z,1019.28
2019-04-14T07:14:42.324Z,1019.32
2019-04-14T07:15:42.321Z,1019.37
2019-04-14T07:16:42.292Z,1019.38
2019-04-14T07:17:42.279Z,1019.41
2019-04-14T07:18:42.267Z,1019.40
2019-04-14T07:19:42.256Z,1019.42
2019-04-14T07:20:42.247Z,1019.48
2019-04-14T07:21:42.233Z,1019.48
2019-04-14T07:22:42.230Z,1019.56
2019-04-14T07:23:42.218Z,1019.51
2019-04-14T07:24:42.218Z,1019.53
2019-04-14T07:25:42.191Z,1019.46
2019-04-14T07:26:42.187Z,1019.50
2019-04-14T07:27:42.174Z,1019.54
2019-04-14T07:28:42.162Z,1019.55
2019-04-14T07:29:42.527Z,1019.59
2019-04-14T07:30:42.142Z,1019.62
2019-04-14T07:31:42.135Z,1019.59
2019-04-14T07:32:42.126Z,1019.62
2019-04-14T07:33:42.113Z,1019.55
2019-04-14T07:34:42.097Z,1019.54
2019-04-14T07:35:42.089Z,1019.57
2019-04-14T07:36:42.081Z,1019.60
2019-04-14T07:37:42.070Z,1019.56
2019-04-14T07:38:42.063Z,1019.58
2019-04-14T07:39:42.056Z,1019.62
2019-04-14T07:40:42.055Z,1019.62
2019-04-14T07:41:42.036Z,1019.62
2019-04-14T07:42:42.024Z,1019.66
2019-04-14T07:43:42.023Z,1019.63
2019-04-14T07:44:42.007Z,1019.67
2019-04-14T07:45:41.997Z,1019.66
2019-04-14T07:46:41.989Z,1019.67
2019-04-14T07:47:41.982Z,1019.61
2019-04-14T07:48:41.973Z,1019.68
2019-04-14T07:49:41.981Z,1019.70
2019-04-14T07:50:41.960Z,1019.67
2019-04-14T07:51:41.954Z,1019.70
2019-04-14T07:52:41.940Z,1019.69
2019-04-14T07:53:41.935Z,1019.72
2019-04-14T07:54:41.945Z,1019.73
2019-04-14T07:55:41.923Z,1019.73
2019-04-14T07:56:41.916Z,1019.73
2019-04-14T07:57:41.906Z,1019.72
2019-04-14T07:58:41.902Z,1019.75
2019-04-14T07:59:41.896Z,1019.73
2019-04-14T08:00:41.890Z,1019.78
2019-04-14T08:01:41.882Z,1019.73
2019-04-14T08:02:41.875Z,1019.73
2019-04-14T08:03:41.867Z,1019.75
2019-04-14T08:04:41.862Z,1019.76
2019-04-14T08:05:41.866Z,1019.78
2019-04-14T08:06:41.862Z,1019.79
2019-04-14T08:07:41.849Z,1019.81
2019-04-14T08:08:41.852Z,1019.79
2019-04-14T08:09:41.841Z,1019.76
2019-04-14T08:10:41.829Z,1019.78
2019-04-14T08:11:41.830Z,1019.76
2019-04-14T08:12:41.829Z,1019.74
2019-04-14T08:13:41.832Z,1019.77
2019-04-14T08:14:41.807Z,1019.75
2019-04-14T08:15:41.809Z,1019.83
2019-04-14T08:16:41.798Z,1019.80
2019-04-14T08:17:43.594Z,1019.84
2019-04-14T08:18:41.798Z,1019.82
2019-04-14T08:19:41.783Z,1019.84
2019-04-14T08:20:41.783Z,1019.87
2019-04-14T08:21:41.772Z,1019.87
2019-04-14T08:22:41.767Z,1019.85
2019-04-14T08:23:41.769Z,1019.87
2019-04-14T08:24:41.767Z,1019.87
2019-04-14T08:25:41.754Z,1019.88
2019-04-14T08:26:41.756Z,1019.89
2019-04-14T08:27:41.744Z,1019.91
2019-04-14T08:28:41.739Z,1019.91
2019-04-14T08:29:41.733Z,1019.95
2019-04-14T08:30:41.735Z,1019.93
2019-04-14T08:31:41.728Z,1019.92
2019-04-14T08:32:41.723Z,1019.94
2019-04-14T08:33:41.724Z,1019.95
2019-04-14T08:34:41.715Z,1019.93
2019-04-14T08:35:41.710Z,1019.87
2019-04-14T08:36:41.712Z,1019.90
2019-04-14T08:37:41.705Z,1019.94
2019-04-14T08:38:41.702Z,1019.92
2019-04-14T08:39:41.702Z,1019.94
2019-04-14T08:40:41.692Z,1019.92
2019-04-14T08:41:41.687Z,1019.96
2019-04-14T08:42:41.682Z,1019.95
2019-04-14T08:43:41.679Z,1019.95
2019-04-14T08:44:41.688Z,1019.95
2019-04-14T08:45:41.882Z,1019.96
2019-04-14T08:46:41.664Z,1019.96
2019-04-14T08:47:41.711Z,1019.96
2019-04-14T08:48:41.658Z,1019.94
2019-04-14T08:49:41.651Z,1019.96
2019-04-14T08:50:41.671Z,1019.98
2019-04-14T08:51:41.645Z,1019.99
2019-04-14T08:52:41.846Z,1019.96
2019-04-14T08:53:41.637Z,1020.03
2019-04-14T08:54:41.633Z,1020.01
2019-04-14T08:55:41.626Z,1020.06
2019-04-14T08:56:41.622Z,1020.14
2019-04-14T08:57:41.618Z,1020.07
2019-04-14T08:58:41.630Z,1020.08
2019-04-14T08:59:41.616Z,1020.11
2019-04-14T09:00:41.629Z,1020.06
2019-04-14T09:01:41.602Z,1020.04
2019-04-14T09:02:41.598Z,1020.08
2019-04-14T09:03:41.596Z,1020.03
2019-04-14T09:04:41.795Z,1020.06
2019-04-14T09:05:41.591Z,1020.10
2019-04-14T09:06:41.578Z,1020.11
2019-04-14T09:07:41.584Z,1020.09
2019-04-14T09:08:41.577Z,1020.03
2019-04-14T09:09:41.575Z,1020.08
2019-04-14T09:10:41.567Z,1020.12
2019-04-14T09:11:41.561Z,1020.07
2019-04-14T09:12:41.547Z,1020.10
2019-04-14T09:13:41.541Z,1020.18
2019-04-14T09:14:41.534Z,1020.17
2019-04-14T09:15:41.535Z,1020.11
2019-04-14T09:16:41.524Z,1020.08
2019-04-14T09:17:41.516Z,1020.12
2019-04-14T09:18:41.828Z,1020.10
2019-04-14T09:19:41.516Z,1020.13
2019-04-14T09:20:51.703Z,1020.09
2019-04-14T09:21:41.492Z,1020.17
2019-04-14T09:22:41.489Z,1020.07
2019-04-14T09:23:41.480Z,1020.01
2019-04-14T09:24:41.473Z,1019.95
2019-04-14T09:25:41.463Z,1019.89
2019-04-14T09:26:41.499Z,1019.78
2019-04-14T09:27:41.458Z,1019.79
2019-04-14T09:28:41.449Z,1019.78
2019-04-14T09:29:41.448Z,1019.74
2019-04-14T09:30:41.429Z,1019.56
2019-04-14T09:31:41.418Z,1019.41
2019-04-14T09:32:41.411Z,1019.47
2019-04-14T09:33:41.404Z,1019.46
2019-04-14T09:34:41.398Z,1019.48
2019-04-14T09:35:41.387Z,1019.43
2019-04-14T09:36:41.386Z,1019.41
2019-04-14T09:37:41.371Z,1019.37
2019-04-14T09:38:41.361Z,1019.39
2019-04-14T09:39:41.353Z,1019.37
2019-04-14T09:40:41.353Z,1019.35
2019-04-14T09:41:41.338Z,1019.45
2019-04-14T09:42:41.330Z,1019.38
2019-04-14T09:43:41.322Z,1019.37
2019-04-14T09:44:41.307Z,1019.34
2019-04-14T09:45:41.299Z,1019.36
2019-04-14T09:46:41.293Z,1019.32
2019-04-14T09:47:41.307Z,1019.30
2019-04-14T09:48:42.896Z,1019.29
2019-04-14T09:49:41.273Z,1019.30
2019-04-14T09:50:41.256Z,1019.26
2019-04-14T09:51:41.243Z,1019.28
2019-04-14T09:52:41.239Z,1019.31
2019-04-14T09:53:41.224Z,1019.29
2019-04-14T09:54:41.214Z,1019.26
2019-04-14T09:55:41.212Z,1019.30
2019-04-14T09:56:41.198Z,1019.29
2019-04-14T09:57:41.196Z,1019.29
2019-04-14T09:58:41.178Z,1019.37
2019-04-14T09:59:41.173Z,1019.36
2019-04-14T10:00:41.187Z,1019.33
2019-04-14T10:01:41.151Z,1019.33
2019-04-14T10:02:41.131Z,1019.37
2019-04-14T10:03:41.121Z,1019.38
2019-04-14T10:04:41.113Z,1019.37
2019-04-14T10:05:41.106Z,1019.40
2019-04-14T10:06:41.162Z,1019.27
2019-04-14T10:07:41.136Z,1019.34
2019-04-14T10:08:41.073Z,1019.38
2019-04-14T10:09:41.052Z,1019.38
2019-04-14T10:10:41.048Z,1019.36
2019-04-14T10:11:48.465Z,1019.36
2019-04-14T10:12:41.073Z,1019.18
2019-04-14T10:13:41.005Z,1019.27
2019-04-14T10:14:40.996Z,1019.26
2019-04-14T10:15:40.981Z,1019.23
2019-04-14T10:16:40.976Z,1019.28
2019-04-14T10:17:40.971Z,1019.26
2019-04-14T10:18:40.951Z,1019.28
2019-04-14T10:19:40.941Z,1019.28
2019-04-14T10:20:40.923Z,1019.25
2019-04-14T10:21:40.914Z,1019.24
2019-04-14T10:22:40.901Z,1019.28
2019-04-14T10:23:40.888Z,1019.28
2019-04-14T10:24:40.882Z,1019.24
2019-04-14T10:25:40.864Z,1019.30
2019-04-14T10:26:40.852Z,1019.27
2019-04-14T10:27:40.843Z,1019.23
2019-04-14T10:28:40.829Z,1019.22
2019-04-14T10:29:40.820Z,1019.24
2019-04-14T10:30:40.808Z,1019.23
2019-04-14T10:31:40.794Z,1019.22
2019-04-14T10:32:40.779Z,1019.26
2019-04-14T10:33:40.766Z,1019.26
2019-04-14T10:34:40.780Z,1019.22
2019-04-14T10:35:40.747Z,1019.24
2019-04-14T10:36:40.733Z,1019.25
2019-04-14T10:37:40.724Z,1019.26
2019-04-14T10:38:40.709Z,1019.24
2019-04-14T10:39:40.694Z,1019.26
2019-04-14T10:40:40.680Z,1019.27
2019-04-14T10:41:40.668Z,1019.30
2019-04-14T10:42:40.656Z,1019.28
2019-04-14T10:43:40.646Z,1019.29
2019-04-14T10:44:40.631Z,1019.29
2019-04-14T10:45:40.629Z,1019.27
2019-04-14T10:46:40.612Z,1019.19
2019-04-14T10:47:40.594Z,1019.22
2019-04-14T10:48:40.609Z,1019.25
2019-04-14T10:49:40.569Z,1019.26
2019-04-14T10:50:40.558Z,1019.28
2019-04-14T10:51:40.544Z,1019.27
2019-04-14T10:52:40.532Z,1019.22
2019-04-14T10:53:40.525Z,1019.23
2019-04-14T10:54:40.508Z,1019.27
2019-04-14T10:55:40.495Z,1019.27
2019-04-14T10:56:40.486Z,1019.26
2019-04-14T10:57:40.467Z,1019.24
2019-04-14T10:58:40.458Z,1019.22
2019-04-14T10:59:40.445Z,1019.19
2019-04-14T11:00:40.437Z,1019.17
2019-04-14T11:01:40.418Z,1019.25
2019-04-14T11:02:40.407Z,1019.27
2019-04-14T11:03:40.402Z,1019.29
2019-04-14T11:04:40.388Z,1019.30
2019-04-14T11:05:40.372Z,1019.27
2019-04-14T11:06:40.358Z,1019.24
2019-04-14T11:07:40.353Z,1019.30
2019-04-14T11:08:40.331Z,1019.32
2019-04-14T11:09:40.318Z,1019.18
2019-04-14T11:10:40.315Z,1019.23
2019-04-14T11:11:40.323Z,1019.08
2019-04-14T11:12:40.287Z,1019.13
2019-04-14T11:13:40.269Z,1019.16
2019-04-14T11:14:40.256Z,1019.14
2019-04-14T11:15:40.249Z,1019.13
2019-04-14T11:16:40.233Z,1019.13
2019-04-14T11:17:40.225Z,1019.10
2019-04-14T11:18:40.213Z,1019.11
2019-04-14T11:19:40.191Z,1019.11
2019-04-14T11:20:40.180Z,1019.12
2019-04-14T11:21:42.620Z,1019.19
2019-04-14T11:22:40.153Z,1019.28
2019-04-14T11:23:40.149Z,1019.27
2019-04-14T11:24:40.140Z,1019.26
2019-04-14T11:25:40.127Z,1019.24
2019-04-14T11:26:40.418Z,1019.14
2019-04-14T11:27:40.101Z,1019.21
2019-04-14T11:28:40.073Z,1019.10
2019-04-14T11:29:40.063Z,1019.16
2019-04-14T11:30:40.085Z,1019.10
2019-04-14T11:31:40.041Z,1019.10
2019-04-14T11:32:40.029Z,1019.03
2019-04-14T11:33:40.006Z,1018.98
2019-04-14T11:34:39.996Z,1019.03
2019-04-14T11:35:39.986Z,1019.02
2019-04-14T11:36:39.976Z,1018.98
2019-04-14T11:37:39.952Z,1019.05
2019-04-14T11:38:39.939Z,1019.02
2019-04-14T11:39:39.924Z,1019.18
2019-04-14T11:40:39.922Z,1019.18
2019-04-14T11:41:39.903Z,1019.15
2019-04-14T11:42:51.582Z,1019.18
2019-04-14T11:43:39.876Z,1019.20
2019-04-14T11:44:39.856Z,1019.23
2019-04-14T11:45:39.867Z,1019.10
2019-04-14T11:46:39.829Z,1019.07
2019-04-14T11:47:39.814Z,1019.06
2019-04-14T11:48:39.803Z,1019.04
2019-04-14T11:49:39.787Z,1019.10
2019-04-14T11:50:39.777Z,1019.13
2019-04-14T11:51:39.755Z,1019.09
2019-04-14T11:52:39.748Z,1019.05
2019-04-14T11:53:39.727Z,1019.07
2019-04-14T11:54:40.042Z,1019.09
2019-04-14T11:55:39.713Z,1019.08
2019-04-14T11:56:39.697Z,1019.10
2019-04-14T11:57:39.670Z,1019.15
2019-04-14T11:58:39.669Z,1019.15
2019-04-14T11:59:39.642Z,1019.19
2019-04-14T12:00:39.631Z,1019.05
2019-04-14T12:01:39.629Z,1019.18
2019-04-14T12:02:39.625Z,1019.15
2019-04-14T12:03:39.592Z,1019.17
2019-04-14T12:04:39.579Z,1019.16
2019-04-14T12:05:39.558Z,1019.09
2019-04-14T12:06:39.540Z,1019.14
2019-04-14T12:07:39.539Z,1019.16
2019-04-14T12:08:39.523Z,1019.16
2019-04-14T12:09:39.503Z,1019.14
2019-04-14T12:10:39.489Z,1019.00
2019-04-14T12:11:39.468Z,1019.02
2019-04-14T12:12:39.510Z,1019.06
2019-04-14T12:13:39.440Z,1019.08
2019-04-14T12:14:39.445Z,1019.16
2019-04-14T12:15:39.411Z,1019.15
2019-04-14T12:16:39.397Z,1019.19